sensor_id;sensor_type;location;lat;lon;timestamp;pressure;altitude;pressure_sealevel;temperature;humidity
23339;BME280;11841;49.368;20.962;2023-01-10T00:00:30;94693.13;;;6.59;100.00
23339;BME280;11841;49.368;20.962;2023-01-10T00:03:03;94684.44;;;6.58;100.00
23339;BME280;11841;49.368;20.962;2023-01-10T00:05:30;94689.25;;;6.61;100.00
23339;BME280;11841;49.368;20.962;2023-01-10T00:07:57;94687.22;;;6.63;100.00
23339;BME280;11841;49.368;20.962;2023-01-10T00:10:24;94684.00;;;6.61;99.70
23339;BME280;11841;49.368;20.962;2023-01-10T00:12:50;94690.25;;;6.60;99.63
23339;BME280;11841;49.368;20.962;2023-01-10T00:15:35;94690.47;;;6.59;99.82
23339;BME280;11841;49.368;20.962;2023-01-10T00:18:02;94688.88;;;6.58;99.61
23339;BME280;11841;49.368;20.962;2023-01-10T00:20:29;94679.16;;;6.58;99.96
23339;BME280;11841;49.368;20.962;2023-01-10T00:22:56;94677.53;;;6.57;99.59
23339;BME280;11841;49.368;20.962;2023-01-10T00:25:23;94672.72;;;6.54;99.93
23339;BME280;11841;49.368;20.962;2023-01-10T00:27:51;94672.72;;;6.54;100.00
23339;BME280;11841;49.368;20.962;2023-01-10T00:30:23;94678.78;;;6.55;100.00
23339;BME280;11841;49.368;20.962;2023-01-10T00:32:49;94673.31;;;6.56;100.00
23339;BME280;11841;49.368;20.962;2023-01-10T00:35:16;94668.63;;;6.58;100.00
23339;BME280;11841;49.368;20.962;2023-01-10T00:37:42;94669.19;;;6.60;99.67
23339;BME280;11841;49.368;20.962;2023-01-10T00:40:09;94676.31;;;6.60;99.85
23339;BME280;11841;49.368;20.962;2023-01-10T00:42:36;94673.91;;;6.58;99.92
23339;BME280;11841;49.368;20.962;2023-01-10T00:45:22;94680.38;;;6.56;99.66
23339;BME280;11841;49.368;20.962;2023-01-10T00:47:50;94683.47;;;6.53;100.00
23339;BME280;11841;49.368;20.962;2023-01-10T00:50:17;94683.91;;;6.50;99.80
23339;BME280;11841;49.368;20.962;2023-01-10T00:52:44;94675.19;;;6.49;100.00
23339;BME280;11841;49.368;20.962;2023-01-10T00:55:10;94681.25;;;6.50;99.81
23339;BME280;11841;49.368;20.962;2023-01-10T00:57:37;94685.13;;;6.47;100.00
23339;BME280;11841;49.368;20.962;2023-01-10T01:00:04;94689.34;;;6.48;100.00
23339;BME280;11841;49.368;20.962;2023-01-10T01:02:34;94700.69;;;6.49;100.00
23339;BME280;11841;49.368;20.962;2023-01-10T01:05:01;94693.63;;;6.49;100.00
23339;BME280;11841;49.368;20.962;2023-01-10T01:07:27;94694.44;;;6.50;100.00
23339;BME280;11841;49.368;20.962;2023-01-10T01:09:54;94690.97;;;6.49;100.00
23339;BME280;11841;49.368;20.962;2023-01-10T01:12:39;94690.97;;;6.49;100.00
23339;BME280;11841;49.368;20.962;2023-01-10T01:15:05;94691.78;;;6.50;100.00
23339;BME280;11841;49.368;20.962;2023-01-10T01:17:32;94692.34;;;6.52;100.00
23339;BME280;11841;49.368;20.962;2023-01-10T01:19:58;94694.00;;;6.53;100.00
23339;BME280;11841;49.368;20.962;2023-01-10T01:22:25;94693.63;;;6.49;100.00
23339;BME280;11841;49.368;20.962;2023-01-10T01:24:51;94696.25;;;6.49;100.00
23339;BME280;11841;49.368;20.962;2023-01-10T01:27:18;94696.69;;;6.46;100.00
23339;BME280;11841;49.368;20.962;2023-01-10T01:29:44;94694.28;;;6.45;100.00
23339;BME280;11841;49.368;20.962;2023-01-10T01:32:11;94695.06;;;6.45;100.00
23339;BME280;11841;49.368;20.962;2023-01-10T01:34:37;94710.06;;;6.45;100.00
23339;BME280;11841;49.368;20.962;2023-01-10T01:37:04;94702.56;;;6.42;100.00
23339;BME280;11841;49.368;20.962;2023-01-10T01:39:30;94709.69;;;6.41;100.00
23339;BME280;11841;49.368;20.962;2023-01-10T01:41:57;94708.06;;;6.40;100.00
23339;BME280;11841;49.368;20.962;2023-01-10T01:44:26;94711.13;;;6.37;100.00
23339;BME280;11841;49.368;20.962;2023-01-10T01:49:21;94713.75;;;6.37;100.00
23339;BME280;11841;49.368;20.962;2023-01-10T01:51:50;94712.72;;;6.38;100.00
23339;BME280;11841;49.368;20.962;2023-01-10T01:54:19;94709.53;;;6.36;100.00
23339;BME280;11841;49.368;20.962;2023-01-10T01:59:16;94704.44;;;6.35;100.00
23339;BME280;11841;49.368;20.962;2023-01-10T02:01:46;94698.78;;;6.38;100.00
23339;BME280;11841;49.368;20.962;2023-01-10T02:04:18;94709.09;;;6.39;100.00
23339;BME280;11841;49.368;20.962;2023-01-10T02:06:45;94703.22;;;6.37;100.00
23339;BME280;11841;49.368;20.962;2023-01-10T02:11:45;94697.97;;;6.37;100.00
23339;BME280;11841;49.368;20.962;2023-01-10T02:14:12;94689.25;;;6.37;100.00
23339;BME280;11841;49.368;20.962;2023-01-10T02:16:39;94693.72;;;6.36;100.00
23339;BME280;11841;49.368;20.962;2023-01-10T02:19:08;94696.38;;;6.36;99.98
23339;BME280;11841;49.368;20.962;2023-01-10T02:22:04;94698.63;;;6.33;100.00
23339;BME280;11841;49.368;20.962;2023-01-10T02:27:09;94696.84;;;6.27;100.00
23339;BME280;11841;49.368;20.962;2023-01-10T02:29:43;94705.75;;;6.26;100.00
23339;BME280;11841;49.368;20.962;2023-01-10T02:35:49;94703.72;;;6.28;100.00
23339;BME280;11841;49.368;20.962;2023-01-10T02:37:59;94692.16;;;6.29;100.00
23339;BME280;11841;49.368;20.962;2023-01-10T02:43:20;94700.06;;;6.29;100.00
23339;BME280;11841;49.368;20.962;2023-01-10T02:45:55;94698.69;;;6.26;100.00
23339;BME280;11841;49.368;20.962;2023-01-10T02:48:24;94700.28;;;6.27;100.00
23339;BME280;11841;49.368;20.962;2023-01-10T02:51:05;94709.78;;;6.28;100.00
23339;BME280;11841;49.368;20.962;2023-01-10T02:53:43;94715.03;;;6.28;100.00
23339;BME280;11841;49.368;20.962;2023-01-10T03:01:34;94721.56;;;6.26;100.00
23339;BME280;11841;49.368;20.962;2023-01-10T03:06:37;94731.97;;;6.14;100.00
23339;BME280;11841;49.368;20.962;2023-01-10T03:09:09;94735.16;;;6.16;100.00
23339;BME280;11841;49.368;20.962;2023-01-10T03:11:40;94743.06;;;6.16;100.00
23339;BME280;11841;49.368;20.962;2023-01-10T03:14:23;94748.31;;;6.16;100.00
23339;BME280;11841;49.368;20.962;2023-01-10T03:16:53;94761.34;;;6.04;99.86
23339;BME280;11841;49.368;20.962;2023-01-10T03:19:21;94751.47;;;6.00;99.78
23339;BME280;11841;49.368;20.962;2023-01-10T03:21:50;94758.41;;;5.88;99.63
23339;BME280;11841;49.368;20.962;2023-01-10T03:24:20;94758.25;;;5.83;99.69
23339;BME280;11841;49.368;20.962;2023-01-10T03:29:23;94776.44;;;5.84;100.00
23339;BME280;11841;49.368;20.962;2023-01-10T03:31:52;94781.91;;;5.83;99.88
23339;BME280;11841;49.368;20.962;2023-01-10T03:34:21;94784.56;;;5.83;99.65
23339;BME280;11841;49.368;20.962;2023-01-10T03:39:41;94781.28;;;5.87;99.42
23339;BME280;11841;49.368;20.962;2023-01-10T03:42:11;94782.69;;;5.90;99.29
23339;BME280;11841;49.368;20.962;2023-01-10T03:49:53;94781.50;;;5.86;98.65
23339;BME280;11841;49.368;20.962;2023-01-10T03:52:21;94784.34;;;5.78;98.38
23339;BME280;11841;49.368;20.962;2023-01-10T03:54:49;94784.97;;;5.67;98.13
23339;BME280;11841;49.368;20.962;2023-01-10T03:57:19;94782.00;;;5.57;97.95
23339;BME280;11841;49.368;20.962;2023-01-10T03:59:46;94786.47;;;5.50;97.32
23339;BME280;11841;49.368;20.962;2023-01-10T04:02:15;94787.53;;;5.36;98.07
23339;BME280;11841;49.368;20.962;2023-01-10T04:04:41;94789.75;;;5.39;98.39
23339;BME280;11841;49.368;20.962;2023-01-10T04:07:08;94796.78;;;5.45;98.38
23339;BME280;11841;49.368;20.962;2023-01-10T04:09:34;94791.94;;;5.48;98.28
23339;BME280;11841;49.368;20.962;2023-01-10T04:12:01;94792.31;;;5.52;98.11
23339;BME280;11841;49.368;20.962;2023-01-10T04:14:27;94786.84;;;5.53;98.33
23339;BME280;11841;49.368;20.962;2023-01-10T04:16:54;94792.94;;;5.54;98.03
23339;BME280;11841;49.368;20.962;2023-01-10T04:19:21;94795.56;;;5.54;97.89
23339;BME280;11841;49.368;20.962;2023-01-10T04:21:47;94795.97;;;5.51;97.50
23339;BME280;11841;49.368;20.962;2023-01-10T04:24:14;94805.28;;;5.47;97.55
23339;BME280;11841;49.368;20.962;2023-01-10T04:26:40;94803.06;;;5.44;97.66
23339;BME280;11841;49.368;20.962;2023-01-10T04:29:07;94804.69;;;5.45;97.48
23339;BME280;11841;49.368;20.962;2023-01-10T04:31:33;94810.97;;;5.44;97.51
23339;BME280;11841;49.368;20.962;2023-01-10T04:34:00;94823.72;;;5.40;97.04
23339;BME280;11841;49.368;20.962;2023-01-10T04:36:26;94823.50;;;5.42;96.78
23339;BME280;11841;49.368;20.962;2023-01-10T04:38:52;94823.09;;;5.38;96.90
23339;BME280;11841;49.368;20.962;2023-01-10T04:41:19;94818.25;;;5.35;97.17
23339;BME280;11841;49.368;20.962;2023-01-10T04:43:45;94830.19;;;5.31;97.28
23339;BME280;11841;49.368;20.962;2023-01-10T04:46:12;94833.84;;;5.30;97.21
23339;BME280;11841;49.368;20.962;2023-01-10T04:48:38;94835.66;;;5.30;97.04
23339;BME280;11841;49.368;20.962;2023-01-10T04:51:05;94836.06;;;5.27;96.99
23339;BME280;11841;49.368;20.962;2023-01-10T04:53:31;94839.53;;;5.21;97.40
23339;BME280;11841;49.368;20.962;2023-01-10T04:56:01;94842.16;;;5.21;97.33
23339;BME280;11841;49.368;20.962;2023-01-10T04:58:30;94841.94;;;5.22;97.08
23339;BME280;11841;49.368;20.962;2023-01-10T05:00:57;94849.63;;;5.24;97.09
23339;BME280;11841;49.368;20.962;2023-01-10T05:03:23;94857.31;;;5.19;97.05
23339;BME280;11841;49.368;20.962;2023-01-10T05:05:50;94855.31;;;5.14;97.20
23339;BME280;11841;49.368;20.962;2023-01-10T05:08:16;94862.97;;;5.09;97.17
23339;BME280;11841;49.368;20.962;2023-01-10T05:10:43;94858.94;;;5.07;97.44
23339;BME280;11841;49.368;20.962;2023-01-10T05:13:09;94864.41;;;5.05;97.45
23339;BME280;11841;49.368;20.962;2023-01-10T05:15:36;94873.28;;;5.04;97.37
23339;BME280;11841;49.368;20.962;2023-01-10T05:18:02;94870.25;;;5.01;97.72
23339;BME280;11841;49.368;20.962;2023-01-10T05:20:28;94874.50;;;4.95;97.79
23339;BME280;11841;49.368;20.962;2023-01-10T05:22:55;94874.09;;;4.91;97.85
23339;BME280;11841;49.368;20.962;2023-01-10T05:25:21;94879.56;;;4.90;97.77
23339;BME280;11841;49.368;20.962;2023-01-10T05:27:48;94895.13;;;4.91;97.58
23339;BME280;11841;49.368;20.962;2023-01-10T05:30:14;94901.16;;;4.85;97.93
23339;BME280;11841;49.368;20.962;2023-01-10T05:32:41;94899.97;;;4.81;98.51
23339;BME280;11841;49.368;20.962;2023-01-10T05:35:07;94896.50;;;4.74;98.80
23339;BME280;11841;49.368;20.962;2023-01-10T05:37:34;94899.13;;;4.74;99.14
23339;BME280;11841;49.368;20.962;2023-01-10T05:40:03;94907.63;;;4.76;99.22
23339;BME280;11841;49.368;20.962;2023-01-10T05:42:30;94907.22;;;4.79;99.01
23339;BME280;11841;49.368;20.962;2023-01-10T05:44:56;94915.72;;;4.81;99.12
23339;BME280;11841;49.368;20.962;2023-01-10T05:47:23;94909.22;;;4.77;99.63
23339;BME280;11841;49.368;20.962;2023-01-10T05:49:50;94917.69;;;4.60;99.84
23339;BME280;11841;49.368;20.962;2023-01-10T05:52:17;94922.16;;;4.59;100.00
23339;BME280;11841;49.368;20.962;2023-01-10T05:54:43;94932.63;;;4.59;100.00
23339;BME280;11841;49.368;20.962;2023-01-10T05:57:10;94930.22;;;4.64;99.40
23339;BME280;11841;49.368;20.962;2023-01-10T05:59:36;94928.59;;;4.63;99.49
23339;BME280;11841;49.368;20.962;2023-01-10T06:02:03;94935.06;;;4.54;99.47
23339;BME280;11841;49.368;20.962;2023-01-10T06:04:30;94936.47;;;4.57;99.68
23339;BME280;11841;49.368;20.962;2023-01-10T06:06:56;94928.00;;;4.61;99.50
23339;BME280;11841;49.368;20.962;2023-01-10T06:09:23;94930.03;;;4.66;99.56
23339;BME280;11841;49.368;20.962;2023-01-10T06:11:49;94937.69;;;4.67;98.93
23339;BME280;11841;49.368;20.962;2023-01-10T06:14:15;94931.41;;;4.62;98.38
23339;BME280;11841;49.368;20.962;2023-01-10T06:16:45;94933.84;;;4.63;98.39
23339;BME280;11841;49.368;20.962;2023-01-10T06:19:11;94939.50;;;4.60;98.48
23339;BME280;11841;49.368;20.962;2023-01-10T06:21:38;94947.78;;;4.57;98.63
23339;BME280;11841;49.368;20.962;2023-01-10T06:24:04;94941.88;;;4.42;99.02
23339;BME280;11841;49.368;20.962;2023-01-10T06:26:31;94947.31;;;4.34;99.23
23339;BME280;11841;49.368;20.962;2023-01-10T06:28:57;94948.72;;;4.37;99.44
23339;BME280;11841;49.368;20.962;2023-01-10T06:31:25;94960.03;;;4.37;99.11
23339;BME280;11841;49.368;20.962;2023-01-10T06:33:51;94958.63;;;4.41;98.78
23339;BME280;11841;49.368;20.962;2023-01-10T06:36:18;94963.06;;;4.41;98.99
23339;BME280;11841;49.368;20.962;2023-01-10T06:38:45;94964.88;;;4.40;98.91
23339;BME280;11841;49.368;20.962;2023-01-10T06:41:12;94966.13;;;4.44;99.08
23339;BME280;11841;49.368;20.962;2023-01-10T06:43:39;94973.94;;;4.38;99.20
23339;BME280;11841;49.368;20.962;2023-01-10T06:46:05;94972.75;;;4.40;99.54
23339;BME280;11841;49.368;20.962;2023-01-10T06:48:35;94965.31;;;4.44;99.69
23339;BME280;11841;49.368;20.962;2023-01-10T06:51:02;94965.09;;;4.45;98.92
23339;BME280;11841;49.368;20.962;2023-01-10T06:53:29;94966.13;;;4.44;98.82
23339;BME280;11841;49.368;20.962;2023-01-10T06:55:56;94960.06;;;4.44;98.79
23339;BME280;11841;49.368;20.962;2023-01-10T06:58:22;94963.09;;;4.47;98.88
23339;BME280;11841;49.368;20.962;2023-01-10T07:00:49;94958.66;;;4.48;98.76
23339;BME280;11841;49.368;20.962;2023-01-10T07:03:16;94963.72;;;4.49;99.33
23339;BME280;11841;49.368;20.962;2023-01-10T07:05:42;94971.38;;;4.51;98.89
23339;BME280;11841;49.368;20.962;2023-01-10T07:08:09;94973.00;;;4.52;98.86
23339;BME280;11841;49.368;20.962;2023-01-10T07:10:35;94976.22;;;4.47;99.28
23339;BME280;11841;49.368;20.962;2023-01-10T07:13:02;94985.91;;;4.47;99.17
23339;BME280;11841;49.368;20.962;2023-01-10T07:15:28;94986.31;;;4.50;99.02
23339;BME280;11841;49.368;20.962;2023-01-10T07:17:56;94990.91;;;4.35;99.42
23339;BME280;11841;49.368;20.962;2023-01-10T07:20:24;95003.59;;;4.25;100.00
23339;BME280;11841;49.368;20.962;2023-01-10T07:22:57;95010.41;;;4.20;100.00
23339;BME280;11841;49.368;20.962;2023-01-10T07:25:24;95008.81;;;4.25;100.00
23339;BME280;11841;49.368;20.962;2023-01-10T07:27:51;95002.56;;;4.26;100.00
23339;BME280;11841;49.368;20.962;2023-01-10T07:30:20;95005.22;;;4.33;100.00
23339;BME280;11841;49.368;20.962;2023-01-10T07:32:56;95014.13;;;4.38;100.00
23339;BME280;11841;49.368;20.962;2023-01-10T07:35:23;95014.34;;;4.43;100.00
23339;BME280;11841;49.368;20.962;2023-01-10T07:37:50;95016.22;;;4.49;100.00
23339;BME280;11841;49.368;20.962;2023-01-10T07:40:16;95021.44;;;4.49;100.00
23339;BME280;11841;49.368;20.962;2023-01-10T07:42:43;95018.00;;;4.42;100.00
23339;BME280;11841;49.368;20.962;2023-01-10T07:45:10;95022.66;;;4.47;100.00
23339;BME280;11841;49.368;20.962;2023-01-10T07:47:36;95028.31;;;4.50;100.00
23339;BME280;11841;49.368;20.962;2023-01-10T07:50:03;95031.72;;;4.44;100.00
23339;BME280;11841;49.368;20.962;2023-01-10T07:52:29;95039.19;;;4.41;100.00
23339;BME280;11841;49.368;20.962;2023-01-10T07:54:56;95036.53;;;4.34;100.00
23339;BME280;11841;49.368;20.962;2023-01-10T07:57:22;95036.75;;;4.39;100.00
23339;BME280;11841;49.368;20.962;2023-01-10T07:59:49;95027.25;;;4.38;100.00
23339;BME280;11841;49.368;20.962;2023-01-10T08:02:15;95036.69;;;4.33;100.00
23339;BME280;11841;49.368;20.962;2023-01-10T08:04:41;95030.22;;;4.22;100.00
23339;BME280;11841;49.368;20.962;2023-01-10T08:07:08;95035.25;;;4.24;100.00
23339;BME280;11841;49.368;20.962;2023-01-10T08:09:34;95037.66;;;4.19;100.00
23339;BME280;11841;49.368;20.962;2023-01-10T08:12:01;95032.22;;;4.20;100.00
23339;BME280;11841;49.368;20.962;2023-01-10T08:14:27;95031.78;;;4.17;100.00
23339;BME280;11841;49.368;20.962;2023-01-10T08:16:54;95048.34;;;4.17;100.00
23339;BME280;11841;49.368;20.962;2023-01-10T08:19:20;95059.06;;;4.22;100.00
23339;BME280;11841;49.368;20.962;2023-01-10T08:21:47;95083.34;;;4.31;100.00
23339;BME280;11841;49.368;20.962;2023-01-10T08:24:13;95096.06;;;4.34;100.00
23339;BME280;11841;49.368;20.962;2023-01-10T08:26:40;95103.13;;;4.33;100.00
23339;BME280;11841;49.368;20.962;2023-01-10T08:29:06;95105.75;;;4.33;100.00
23339;BME280;11841;49.368;20.962;2023-01-10T08:31:33;95105.75;;;4.33;100.00
23339;BME280;11841;49.368;20.962;2023-01-10T08:33:59;95109.38;;;4.32;100.00
23339;BME280;11841;49.368;20.962;2023-01-10T08:36:26;95108.97;;;4.29;100.00
23339;BME280;11841;49.368;20.962;2023-01-10T08:38:54;95106.13;;;4.30;100.00
23339;BME280;11841;49.368;20.962;2023-01-10T08:41:21;95103.50;;;4.30;100.00
23339;BME280;11841;49.368;20.962;2023-01-10T08:43:48;95117.22;;;4.26;100.00
23339;BME280;11841;49.368;20.962;2023-01-10T08:46:15;95119.22;;;4.24;100.00
23339;BME280;11841;49.368;20.962;2023-01-10T08:48:41;95127.94;;;4.31;100.00
23339;BME280;11841;49.368;20.962;2023-01-10T08:51:08;95124.50;;;4.30;100.00
23339;BME280;11841;49.368;20.962;2023-01-10T08:53:34;95131.16;;;4.33;100.00
23339;BME280;11841;49.368;20.962;2023-01-10T08:56:01;95132.38;;;4.30;100.00
23339;BME280;11841;49.368;20.962;2023-01-10T08:58:30;95133.91;;;4.18;100.00
23339;BME280;11841;49.368;20.962;2023-01-10T09:00:57;95129.09;;;4.22;100.00
23339;BME280;11841;49.368;20.962;2023-01-10T09:03:23;95130.69;;;4.23;100.00
23339;BME280;11841;49.368;20.962;2023-01-10T09:05:50;95133.53;;;4.21;100.00
23339;BME280;11841;49.368;20.962;2023-01-10T09:08:16;95135.75;;;4.24;100.00
23339;BME280;11841;49.368;20.962;2023-01-10T09:10:43;95142.41;;;4.20;100.00
23339;BME280;11841;49.368;20.962;2023-01-10T09:13:09;95140.16;;;4.17;100.00
23339;BME280;11841;49.368;20.962;2023-01-10T09:15:36;95145.66;;;4.22;100.00
23339;BME280;11841;49.368;20.962;2023-01-10T09:18:04;95155.75;;;4.25;100.00
23339;BME280;11841;49.368;20.962;2023-01-10T09:20:32;95159.78;;;4.28;100.00
23339;BME280;11841;49.368;20.962;2023-01-10T09:23:03;95163.88;;;4.30;100.00
23339;BME280;11841;49.368;20.962;2023-01-10T09:25:30;95165.34;;;4.39;100.00
23339;BME280;11841;49.368;20.962;2023-01-10T09:27:57;95165.13;;;4.34;99.40
23339;BME280;11841;49.368;20.962;2023-01-10T09:30:24;95172.25;;;4.19;98.87
23339;BME280;11841;49.368;20.962;2023-01-10T09:32:51;95161.75;;;4.19;99.42
23339;BME280;11841;49.368;20.962;2023-01-10T09:35:18;95163.00;;;4.23;98.85
23339;BME280;11841;49.368;20.962;2023-01-10T09:37:45;95167.16;;;4.11;100.00
23339;BME280;11841;49.368;20.962;2023-01-10T09:40:15;95177.88;;;4.16;100.00
23339;BME280;11841;49.368;20.962;2023-01-10T09:42:47;95184.00;;;4.23;100.00
23339;BME280;11841;49.368;20.962;2023-01-10T09:48:03;95184.81;;;4.24;98.94
23339;BME280;11841;49.368;20.962;2023-01-10T09:53:02;95183.25;;;4.29;99.21
23339;BME280;11841;49.368;20.962;2023-01-10T09:55:32;95183.25;;;4.29;98.04
23339;BME280;11841;49.368;20.962;2023-01-10T09:58:10;95200.16;;;4.27;97.22
23339;BME280;11841;49.368;20.962;2023-01-10T10:03:16;95187.50;;;4.09;97.34
23339;BME280;11841;49.368;20.962;2023-01-10T10:05:44;95192.75;;;4.09;97.80
23339;BME280;11841;49.368;20.962;2023-01-10T10:08:13;95196.78;;;4.05;98.20
23339;BME280;11841;49.368;20.962;2023-01-10T10:10:54;95195.09;;;3.98;97.65
23339;BME280;11841;49.368;20.962;2023-01-10T10:16:06;95189.44;;;4.01;98.67
23339;BME280;11841;49.368;20.962;2023-01-10T10:21:08;95208.94;;;4.13;98.85
23339;BME280;11841;49.368;20.962;2023-01-10T10:34:13;95233.69;;;4.31;99.70
23339;BME280;11841;49.368;20.962;2023-01-10T10:36:46;95244.38;;;4.30;100.00
23339;BME280;11841;49.368;20.962;2023-01-10T10:39:16;95241.72;;;4.23;100.00
23339;BME280;11841;49.368;20.962;2023-01-10T10:41:45;95246.59;;;4.26;100.00
23339;BME280;11841;49.368;20.962;2023-01-10T10:46:52;95270.00;;;4.28;100.00
23339;BME280;11841;49.368;20.962;2023-01-10T10:49:21;95266.78;;;4.26;100.00
23339;BME280;11841;49.368;20.962;2023-01-10T10:51:51;95271.22;;;4.25;100.00
23339;BME280;11841;49.368;20.962;2023-01-10T10:54:18;95267.97;;;4.23;100.00
23339;BME280;11841;49.368;20.962;2023-01-10T10:56:45;95273.19;;;4.23;100.00
23339;BME280;11841;49.368;20.962;2023-01-10T10:59:14;95285.31;;;4.24;100.00
23339;BME280;11841;49.368;20.962;2023-01-10T11:01:44;95299.44;;;4.23;100.00
23339;BME280;11841;49.368;20.962;2023-01-10T11:04:14;95292.94;;;4.19;100.00
23339;BME280;11841;49.368;20.962;2023-01-10T11:06:42;95295.25;;;4.08;99.52
23339;BME280;11841;49.368;20.962;2023-01-10T11:09:21;95300.06;;;4.04;99.33
23339;BME280;11841;49.368;20.962;2023-01-10T11:11:52;95295.69;;;4.11;99.32
23339;BME280;11841;49.368;20.962;2023-01-10T11:19:53;95307.28;;;4.02;99.04
23339;BME280;11841;49.368;20.962;2023-01-10T11:22:19;95317.69;;;4.10;98.83
23339;BME280;11841;49.368;20.962;2023-01-10T11:24:50;95311.81;;;4.08;99.07
23339;BME280;11841;49.368;20.962;2023-01-10T11:27:20;95312.63;;;4.09;99.61
23339;BME280;11841;49.368;20.962;2023-01-10T11:29:50;95313.47;;;4.16;98.99
23339;BME280;11841;49.368;20.962;2023-01-10T11:32:18;95313.06;;;4.12;98.65
23339;BME280;11841;49.368;20.962;2023-01-10T11:34:47;95320.38;;;4.17;99.26
23339;BME280;11841;49.368;20.962;2023-01-10T11:39:47;95329.78;;;4.11;99.00
23339;BME280;11841;49.368;20.962;2023-01-10T11:44:49;95338.66;;;4.10;99.57
23339;BME280;11841;49.368;20.962;2023-01-10T11:47:16;95348.16;;;4.11;99.14
23339;BME280;11841;49.368;20.962;2023-01-10T11:49:46;95350.06;;;4.03;99.93
23339;BME280;11841;49.368;20.962;2023-01-10T11:54:46;95369.06;;;4.05;99.99
23339;BME280;11841;49.368;20.962;2023-01-10T11:57:20;95363.91;;;4.11;100.00
23339;BME280;11841;49.368;20.962;2023-01-10T11:59:50;95373.47;;;4.19;99.51
23339;BME280;11841;49.368;20.962;2023-01-10T12:02:25;95373.91;;;4.22;99.73
23339;BME280;11841;49.368;20.962;2023-01-10T12:04:53;95383.53;;;4.15;99.51
23339;BME280;11841;49.368;20.962;2023-01-10T12:07:21;95380.91;;;4.15;99.07
23339;BME280;11841;49.368;20.962;2023-01-10T12:12:16;95391.78;;;4.12;99.66
23339;BME280;11841;49.368;20.962;2023-01-10T12:14:44;95392.13;;;4.09;99.87
23339;BME280;11841;49.368;20.962;2023-01-10T12:19:46;95385.38;;;4.00;99.96
23339;BME280;11841;49.368;20.962;2023-01-10T12:22:13;95394.47;;;4.04;100.00
23339;BME280;11841;49.368;20.962;2023-01-10T12:24:41;95385.06;;;4.10;100.00
23339;BME280;11841;49.368;20.962;2023-01-10T12:27:10;95393.38;;;4.13;99.89
23339;BME280;11841;49.368;20.962;2023-01-10T12:32:30;95399.38;;;4.07;100.00
23339;BME280;11841;49.368;20.962;2023-01-10T12:35:00;95409.88;;;4.07;99.89
23339;BME280;11841;49.368;20.962;2023-01-10T12:40:41;95410.97;;;3.98;100.00
23339;BME280;11841;49.368;20.962;2023-01-10T12:45:25;95417.75;;;4.07;100.00
23339;BME280;11841;49.368;20.962;2023-01-10T12:52:49;95431.84;;;4.21;100.00
23339;BME280;11841;49.368;20.962;2023-01-10T12:55:22;95436.25;;;4.20;99.75
23339;BME280;11841;49.368;20.962;2023-01-10T12:57:50;95438.09;;;4.05;100.00
23339;BME280;11841;49.368;20.962;2023-01-10T13:00:20;95441.69;;;4.04;100.00
23339;BME280;11841;49.368;20.962;2023-01-10T13:02:53;95436.44;;;4.04;100.00
23339;BME280;11841;49.368;20.962;2023-01-10T13:05:21;95428.59;;;4.04;100.00
23339;BME280;11841;49.368;20.962;2023-01-10T13:07:48;95440.72;;;3.91;100.00
23339;BME280;11841;49.368;20.962;2023-01-10T13:10:17;95442.56;;;3.90;100.00
23339;BME280;11841;49.368;20.962;2023-01-10T13:12:56;95443.97;;;3.93;100.00
23339;BME280;11841;49.368;20.962;2023-01-10T13:15:28;95448.94;;;4.02;100.00
23339;BME280;11841;49.368;20.962;2023-01-10T13:18:12;95453.47;;;4.08;100.00
23339;BME280;11841;49.368;20.962;2023-01-10T13:20:40;95454.38;;;4.15;100.00
23339;BME280;11841;49.368;20.962;2023-01-10T13:23:12;95462.41;;;4.14;100.00
23339;BME280;11841;49.368;20.962;2023-01-10T13:25:40;95459.03;;;4.20;100.00
23339;BME280;11841;49.368;20.962;2023-01-10T13:28:19;95467.19;;;4.25;100.00
23339;BME280;11841;49.368;20.962;2023-01-10T13:30:51;95465.94;;;4.21;100.00
23339;BME280;11841;49.368;20.962;2023-01-10T13:33:23;95472.09;;;4.13;100.00
23339;BME280;11841;49.368;20.962;2023-01-10T13:35:51;95466.09;;;4.19;100.00
23339;BME280;11841;49.368;20.962;2023-01-10T13:38:20;95475.50;;;4.28;100.00
23339;BME280;11841;49.368;20.962;2023-01-10T13:41:21;95480.38;;;4.31;100.00
23339;BME280;11841;49.368;20.962;2023-01-10T13:51:26;95497.41;;;4.35;100.00
23339;BME280;11841;49.368;20.962;2023-01-10T13:53:55;95506.53;;;4.39;100.00
23339;BME280;11841;49.368;20.962;2023-01-10T13:58:58;95498.94;;;4.30;99.17
23339;BME280;11841;49.368;20.962;2023-01-10T14:01:43;95507.63;;;4.30;99.57
23339;BME280;11841;49.368;20.962;2023-01-10T14:04:29;95508.63;;;4.29;99.05
23339;BME280;11841;49.368;20.962;2023-01-10T14:06:59;95511.78;;;4.25;99.11
23339;BME280;11841;49.368;20.962;2023-01-10T14:09:28;95513.88;;;4.29;99.05
23339;BME280;11841;49.368;20.962;2023-01-10T14:11:57;95520.81;;;4.37;98.82
23339;BME280;11841;49.368;20.962;2023-01-10T14:14:25;95526.34;;;4.42;98.95
23339;BME280;11841;49.368;20.962;2023-01-10T14:16:54;95537.84;;;4.26;97.69
23339;BME280;11841;49.368;20.962;2023-01-10T14:19:23;95516.97;;;4.18;97.68
23339;BME280;11841;49.368;20.962;2023-01-10T14:21:52;95538.59;;;4.20;98.50
23339;BME280;11841;49.368;20.962;2023-01-10T14:24:24;95539.03;;;4.09;96.82
23339;BME280;11841;49.368;20.962;2023-01-10T14:26:55;95546.28;;;4.07;96.88
23339;BME280;11841;49.368;20.962;2023-01-10T14:29:23;95534.34;;;4.05;97.35
23339;BME280;11841;49.368;20.962;2023-01-10T14:31:53;95536.13;;;4.04;96.53
23339;BME280;11841;49.368;20.962;2023-01-10T14:34:22;95534.50;;;4.03;96.84
23339;BME280;11841;49.368;20.962;2023-01-10T14:37:36;95538.94;;;4.03;97.90
23339;BME280;11841;49.368;20.962;2023-01-10T14:39:36;95527.94;;;4.07;97.73
23339;BME280;11841;49.368;20.962;2023-01-10T14:42:06;95544.34;;;4.16;97.21
23339;BME280;11841;49.368;20.962;2023-01-10T14:47:00;95542.31;;;4.26;97.17